createdAt,value
2022-08-07T00:00:03.115Z,0.045
2022-08-07T00:01:00.315Z,0.045
2022-08-07T00:02:37.930Z,0.045
2022-08-07T00:03:00.280Z,0.045
2022-08-07T00:04:00.394Z,0.045
2022-08-07T00:05:00.401Z,0.045
2022-08-07T00:06:00.469Z,0.045
2022-08-07T00:07:01.425Z,0.045
2022-08-07T00:08:02.241Z,0.045
2022-08-07T00:09:00.297Z,0.045
2022-08-07T00:10:25.621Z,0.090
2022-08-07T00:11:00.384Z,0.045
2022-08-07T00:12:00.305Z,0.045
2022-08-07T00:13:01.802Z,0.045
2022-08-07T00:14:00.310Z,0.045
2022-08-07T00:15:00.331Z,0.045
2022-08-07T00:16:00.404Z,0.045
2022-08-07T00:17:00.298Z,0.045
2022-08-07T00:18:00.399Z,0.045
2022-08-07T00:19:00.380Z,0.045
2022-08-07T00:20:03.271Z,0.045
2022-08-07T00:21:01.995Z,0.045
2022-08-07T00:22:02.199Z,0.045
2022-08-07T00:23:00.336Z,0.045
2022-08-07T00:24:00.312Z,0.045
2022-08-07T00:25:00.330Z,0.045
2022-08-07T00:26:06.832Z,0.045
2022-08-07T00:27:07.270Z,0.045
2022-08-07T00:28:00.400Z,0.045
2022-08-07T00:29:00.300Z,0.045
2022-08-07T00:30:00.398Z,0.045
2022-08-07T00:31:00.358Z,0.045
2022-08-07T00:32:00.289Z,0.045
2022-08-07T00:33:00.345Z,0.045
2022-08-07T00:34:00.373Z,0.045
2022-08-07T00:35:00.338Z,0.045
2022-08-07T00:36:00.393Z,0.045
2022-08-07T00:37:00.283Z,0.045
2022-08-07T00:38:00.305Z,0.045
2022-08-07T00:39:00.374Z,0.045
2022-08-07T00:40:00.453Z,0.045
2022-08-07T00:41:00.509Z,0.045
2022-08-07T00:42:02.079Z,0.045
2022-08-07T00:43:00.293Z,0.045
2022-08-07T00:44:02.817Z,0.045
2022-08-07T00:45:00.356Z,0.045
2022-08-07T00:46:00.287Z,0.045
2022-08-07T00:47:00.416Z,0.045
2022-08-07T00:48:18.416Z,0.090
2022-08-07T00:49:02.076Z,0.045
2022-08-07T00:50:21.453Z,0.045
2022-08-07T00:51:00.374Z,0.045
2022-08-07T00:52:00.297Z,0.045
2022-08-07T00:53:00.387Z,0.045
2022-08-07T00:54:00.342Z,0.045
2022-08-07T00:55:04.670Z,0.045
2022-08-07T00:56:03.660Z,0.045
2022-08-07T00:57:00.399Z,0.045
2022-08-07T00:58:00.291Z,0.045
2022-08-07T00:59:00.361Z,0.045
2022-08-07T01:00:00.292Z,0.045
2022-08-07T01:01:00.335Z,0.045
2022-08-07T01:02:00.345Z,0.045
2022-08-07T01:03:00.298Z,0.045
2022-08-07T01:04:00.520Z,0.045
2022-08-07T01:05:00.383Z,0.045
2022-08-07T01:06:00.300Z,0.045
2022-08-07T01:07:00.356Z,0.045
2022-08-07T01:08:00.440Z,0.045
2022-08-07T01:09:01.045Z,0.045
2022-08-07T01:10:07.153Z,0.045
2022-08-07T01:11:10.720Z,0.045
2022-08-07T01:12:27.514Z,0.045
2022-08-07T01:13:00.283Z,0.045
2022-08-07T01:14:00.385Z,0.090
2022-08-07T01:15:01.630Z,0.045
2022-08-07T01:16:01.258Z,0.045
2022-08-07T01:17:00.299Z,0.045
2022-08-07T01:18:00.362Z,0.045
2022-08-07T01:19:00.351Z,0.045
2022-08-07T01:20:00.385Z,0.045
2022-08-07T01:21:00.317Z,0.090
2022-08-07T01:22:00.374Z,0.090
2022-08-07T01:23:12.162Z,0.090
2022-08-07T01:24:00.392Z,0.090
2022-08-07T01:25:00.395Z,0.090
2022-08-07T01:26:00.318Z,0.135
2022-08-07T01:27:00.390Z,0.135
2022-08-07T01:28:00.317Z,0.135
2022-08-07T01:29:00.278Z,0.180
2022-08-07T01:30:00.754Z,0.180
2022-08-07T01:31:00.400Z,0.180
2022-08-07T01:32:00.295Z,0.225
2022-08-07T01:33:00.350Z,0.225
2022-08-07T01:34:00.293Z,0.270
2022-08-07T01:35:00.309Z,0.360
2022-08-07T01:36:06.275Z,0.405
2022-08-07T01:37:00.372Z,0.495
2022-08-07T01:38:00.322Z,0.585
2022-08-07T01:39:00.449Z,0.675
2022-08-07T01:40:00.766Z,0.855
2022-08-07T01:41:00.419Z,1.080
2022-08-07T01:42:37.250Z,1.350
2022-08-07T01:43:00.369Z,1.530
2022-08-07T01:44:00.306Z,1.980
2022-08-07T01:45:00.297Z,2.250
2022-08-07T01:46:00.320Z,2.925
2022-08-07T01:47:01.102Z,3.600
2022-08-07T01:48:29.616Z,4.230
2022-08-07T01:49:00.301Z,4.860
2022-08-07T01:50:00.529Z,6.210
2022-08-07T01:51:00.324Z,7.155
2022-08-07T01:52:01.773Z,8.730
2022-08-07T01:53:00.352Z,10.440
2022-08-07T01:54:09.028Z,12.240
2022-08-07T01:55:00.349Z,14.310
2022-08-07T01:56:00.406Z,16.020
2022-08-07T01:57:00.437Z,19.170
2022-08-07T01:58:06.943Z,21.690
2022-08-07T01:59:00.301Z,24.840
2022-08-07T02:00:00.409Z,28.440
2022-08-07T02:01:09.863Z,31.680
2022-08-07T02:02:02.547Z,35.820
2022-08-07T02:03:19.198Z,39.420
2022-08-07T02:04:00.364Z,45.180
2022-08-07T02:05:00.300Z,50.040
2022-08-07T02:06:01.242Z,55.080
2022-08-07T02:07:00.300Z,61.560
2022-08-07T02:08:00.342Z,64.800
2022-08-07T02:09:00.414Z,76.320
2022-08-07T02:10:00.341Z,79.920
2022-08-07T02:11:00.314Z,87.120
2022-08-07T02:12:03.683Z,97.200
2022-08-07T02:13:00.300Z,103.680
2022-08-07T02:14:02.362Z,110.880
2022-08-07T02:15:00.752Z,120.240
2022-08-07T02:16:00.312Z,129.600
2022-08-07T02:17:00.383Z,140.400
2022-08-07T02:18:00.316Z,153.360
2022-08-07T02:19:00.296Z,162.720
2022-08-07T02:20:04.606Z,179.280
2022-08-07T02:21:00.307Z,182.880
2022-08-07T02:22:00.326Z,195.840
2022-08-07T02:23:00.428Z,204.480
2022-08-07T02:24:00.299Z,223.200
2022-08-07T02:25:00.335Z,216.000
2022-08-07T02:26:31.857Z,236.160
2022-08-07T02:27:01.456Z,243.360
2022-08-07T02:28:00.426Z,288.000
2022-08-07T02:29:00.300Z,308.160
2022-08-07T02:30:00.316Z,347.040
2022-08-07T02:31:00.392Z,368.640
2022-08-07T02:32:00.310Z,365.760
2022-08-07T02:33:09.089Z,377.280
2022-08-07T02:34:10.965Z,408.960
2022-08-07T02:35:00.911Z,432.000
2022-08-07T02:36:30.214Z,449.280
2022-08-07T02:37:00.298Z,475.200
2022-08-07T02:38:00.317Z,506.880
2022-08-07T02:39:00.464Z,544.320
2022-08-07T02:40:11.593Z,570.240
2022-08-07T02:41:00.522Z,599.040
2022-08-07T02:42:00.345Z,616.320
2022-08-07T02:43:00.320Z,624.960
2022-08-07T02:44:00.315Z,619.200
2022-08-07T02:45:00.489Z,688.320
2022-08-07T02:46:02.547Z,659.520
2022-08-07T02:47:00.819Z,702.720
2022-08-07T02:48:01.659Z,688.320
2022-08-07T02:49:00.329Z,696.960
2022-08-07T02:50:00.615Z,685.440
2022-08-07T02:51:00.308Z,714.240
2022-08-07T02:52:00.301Z,748.800
2022-08-07T02:53:00.872Z,766.080
2022-08-07T02:54:00.370Z,800.640
2022-08-07T02:55:00.297Z,812.160
2022-08-07T02:56:03.430Z,806.400
2022-08-07T02:57:00.383Z,823.680
2022-08-07T02:58:00.360Z,789.120
2022-08-07T02:59:00.309Z,887.040
2022-08-07T03:00:01.144Z,898.560
2022-08-07T03:01:00.475Z,875.520
2022-08-07T03:02:02.194Z,1025.280
2022-08-07T03:03:00.402Z,950.400
2022-08-07T03:04:03.482Z,1036.800
2022-08-07T03:05:00.297Z,1059.840
2022-08-07T03:06:00.323Z,1002.240
2022-08-07T03:07:03.417Z,1008.000
2022-08-07T03:08:07.135Z,1025.280
2022-08-07T03:09:00.319Z,984.960
2022-08-07T03:10:00.310Z,1019.520
2022-08-07T03:11:00.285Z,996.480
2022-08-07T03:12:02.630Z,1025.280
2022-08-07T03:13:00.292Z,1019.520
2022-08-07T03:14:01.842Z,1157.760
2022-08-07T03:15:02.450Z,1123.200
2022-08-07T03:16:00.357Z,1169.280
2022-08-07T03:17:00.283Z,1186.560
2022-08-07T03:18:00.303Z,1376.640
2022-08-07T03:19:00.303Z,1244.160
2022-08-07T03:20:00.418Z,1209.600
2022-08-07T03:21:00.313Z,1244.160
2022-08-07T03:22:00.383Z,1468.800
2022-08-07T03:23:00.316Z,1509.120
2022-08-07T03:24:19.283Z,1313.280
2022-08-07T03:25:00.475Z,1543.680
2022-08-07T03:26:00.377Z,1347.840
2022-08-07T03:27:00.333Z,1307.520
2022-08-07T03:28:09.481Z,1451.520
2022-08-07T03:29:00.373Z,1474.560
2022-08-07T03:30:00.302Z,1365.120
2022-08-07T03:31:00.388Z,1434.240
2022-08-07T03:32:00.297Z,1589.760
2022-08-07T03:33:00.993Z,1681.920
2022-08-07T03:34:00.300Z,1589.760
2022-08-07T03:35:17.092Z,1543.680
2022-08-07T03:36:00.291Z,1589.760
2022-08-07T03:37:00.289Z,1693.440
2022-08-07T03:38:00.380Z,1751.040
2022-08-07T03:39:05.419Z,1981.440
2022-08-07T03:40:14.859Z,1820.160
2022-08-07T03:41:00.554Z,1946.880
2022-08-07T03:42:00.700Z,1923.840
2022-08-07T03:43:00.578Z,1728.000
2022-08-07T03:44:00.310Z,1958.400
2022-08-07T03:45:01.368Z,1739.520
2022-08-07T03:46:00.300Z,1843.200
2022-08-07T03:47:10.913Z,1820.160
2022-08-07T03:48:00.303Z,1716.480
2022-08-07T03:49:02.608Z,1831.680
2022-08-07T03:50:00.281Z,2039.040
2022-08-07T03:51:00.314Z,2050.560
2022-08-07T03:52:01.127Z,1843.200
2022-08-07T03:53:00.420Z,1877.760
2022-08-07T03:54:33.770Z,1969.920
2022-08-07T03:55:06.503Z,2304.000
2022-08-07T03:56:04.165Z,1958.400
2022-08-07T03:57:03.892Z,2085.120
2022-08-07T03:58:34.730Z,2511.360
2022-08-07T03:59:08.133Z,2350.080
2022-08-07T04:00:01.858Z,2638.080
2022-08-07T04:01:00.593Z,2845.440
2022-08-07T04:02:00.354Z,2764.800
2022-08-07T04:03:04.333Z,2661.120
2022-08-07T04:04:00.295Z,2891.520
2022-08-07T04:05:00.371Z,2833.920
2022-08-07T04:06:00.391Z,2684.160
2022-08-07T04:07:00.359Z,2384.640
2022-08-07T04:08:00.399Z,2315.520
2022-08-07T04:09:00.303Z,2338.560
2022-08-07T04:10:02.158Z,2373.120
2022-08-07T04:12:20.914Z,2338.560
2022-08-07T04:12:25.002Z,2384.640
2022-08-07T04:13:00.354Z,2707.200
2022-08-07T04:14:33.227Z,2350.080
2022-08-07T04:15:00.448Z,2384.640
2022-08-07T04:16:00.482Z,2603.520
2022-08-07T04:17:00.298Z,2442.240
2022-08-07T04:18:58.579Z,2499.840
2022-08-07T04:19:04.352Z,2972.160
2022-08-07T04:20:00.339Z,2626.560
2022-08-07T04:21:00.315Z,2626.560
2022-08-07T04:22:08.666Z,2695.680
2022-08-07T04:23:01.770Z,2926.080
2022-08-07T04:24:03.919Z,2764.800
2022-08-07T04:25:01.390Z,3064.320
2022-08-07T04:26:00.346Z,3202.560
2022-08-07T04:27:00.408Z,2833.920
2022-08-07T04:28:01.122Z,3271.680
2022-08-07T04:29:00.422Z,3225.600
2022-08-07T04:30:01.911Z,3156.480
2022-08-07T04:31:00.384Z,2511.360
2022-08-07T04:32:03.012Z,3317.760
2022-08-07T04:33:00.314Z,3456.000
2022-08-07T04:34:00.294Z,3456.000
2022-08-07T04:35:00.365Z,3018.240
2022-08-07T04:36:00.283Z,3479.040
2022-08-07T04:37:00.397Z,3617.280
2022-08-07T04:38:06.408Z,3456.000
2022-08-07T04:39:00.526Z,2880.000
2022-08-07T04:40:00.408Z,2903.040
2022-08-07T04:41:00.297Z,3087.360
2022-08-07T04:42:00.310Z,3939.840
2022-08-07T04:43:01.698Z,3663.360
2022-08-07T04:44:12.977Z,3479.040
2022-08-07T04:45:03.340Z,4216.320
2022-08-07T04:46:01.839Z,3824.640
2022-08-07T04:47:04.668Z,3133.440
2022-08-07T04:48:10.128Z,3502.080
2022-08-07T04:49:01.520Z,3340.800
2022-08-07T04:50:04.090Z,3985.920
2022-08-07T04:51:00.284Z,16404.480
2022-08-07T04:52:00.360Z,4631.040
2022-08-07T04:53:00.511Z,11750.400
2022-08-07T04:54:01.302Z,11612.160
2022-08-07T04:55:00.302Z,3456.000
2022-08-07T04:58:12.545Z,10552.320
2022-08-07T04:58:15.000Z,4400.640
2022-08-07T04:58:16.493Z,16404.480
2022-08-07T05:00:11.222Z,4124.160
2022-08-07T05:00:11.888Z,16312.320
2022-08-07T05:01:00.438Z,17971.199
2022-08-07T05:02:00.378Z,15575.040
2022-08-07T05:03:00.298Z,4654.080
2022-08-07T05:04:08.613Z,17418.240
2022-08-07T05:05:00.386Z,3479.040
2022-08-07T05:06:00.382Z,4469.760
2022-08-07T05:07:00.327Z,5806.080
2022-08-07T05:08:00.292Z,14008.320
2022-08-07T05:09:01.831Z,4608.000
2022-08-07T05:10:00.749Z,4308.480
2022-08-07T05:11:02.647Z,5114.880
2022-08-07T05:12:02.552Z,4700.160
2022-08-07T05:14:44.621Z,4216.320
2022-08-07T05:14:53.040Z,12994.560
2022-08-07T05:15:04.903Z,15943.680
2022-08-07T05:16:00.297Z,4677.120
2022-08-07T05:17:00.305Z,4677.120
2022-08-07T05:18:01.419Z,6912.000
2022-08-07T05:19:00.407Z,4446.720
2022-08-07T05:20:00.326Z,18524.160
2022-08-07T05:21:00.367Z,18616.320
2022-08-07T05:22:01.895Z,12533.760
2022-08-07T05:23:00.304Z,18984.961
2022-08-07T05:24:00.286Z,18247.680
2022-08-07T05:25:00.598Z,14561.280
2022-08-07T05:26:13.787Z,19077.119
2022-08-07T05:27:00.312Z,18524.160
2022-08-07T05:28:03.306Z,12810.240
2022-08-07T05:29:00.401Z,4469.760
2022-08-07T05:30:00.439Z,7372.800
2022-08-07T05:31:00.325Z,4008.960
2022-08-07T05:32:00.372Z,18247.680
2022-08-07T05:33:00.375Z,17326.080
2022-08-07T05:34:04.944Z,18339.840
2022-08-07T05:35:00.396Z,4538.880
2022-08-07T05:36:00.356Z,17879.039
2022-08-07T05:37:00.300Z,15114.240
2022-08-07T05:38:08.969Z,17786.881
2022-08-07T05:40:03.804Z,17786.881
2022-08-07T05:40:13.500Z,11427.840
2022-08-07T05:41:00.411Z,17418.240
2022-08-07T05:42:03.814Z,14284.800
2022-08-07T05:43:00.303Z,4331.520
2022-08-07T05:44:11.905Z,17326.080
2022-08-07T05:45:14.171Z,4285.440
2022-08-07T05:46:00.354Z,4262.400
2022-08-07T05:47:01.095Z,5944.320
2022-08-07T05:48:02.528Z,15851.520
2022-08-07T05:49:00.302Z,4216.320
2022-08-07T05:50:00.301Z,10460.160
2022-08-07T05:51:00.482Z,5552.640
2022-08-07T05:52:00.301Z,5230.080
2022-08-07T05:53:00.306Z,18984.961
2022-08-07T05:54:13.598Z,5253.120
2022-08-07T05:55:05.449Z,4584.960
2022-08-07T05:56:03.249Z,4446.720
2022-08-07T05:57:00.387Z,17694.721
2022-08-07T05:58:00.303Z,6220.800
2022-08-07T05:59:00.285Z,6174.720
2022-08-07T06:00:01.415Z,4147.200
2022-08-07T06:01:00.328Z,17879.039
2022-08-07T06:02:00.331Z,17971.199
2022-08-07T06:03:00.740Z,5114.880
2022-08-07T06:04:01.387Z,17141.760
2022-08-07T06:05:00.300Z,13547.520
2022-08-07T06:06:00.377Z,15759.360
2022-08-07T06:07:03.904Z,5045.760
2022-08-07T06:08:14.461Z,4884.480
2022-08-07T06:09:00.303Z,10644.480
2022-08-07T06:10:05.807Z,17326.080
2022-08-07T06:11:00.324Z,6543.360
2022-08-07T06:12:00.383Z,4792.320
2022-08-07T06:13:00.390Z,4515.840
2022-08-07T06:14:12.820Z,6359.040
2022-08-07T06:15:05.167Z,4769.280
2022-08-07T06:16:00.312Z,4285.440
2022-08-07T06:17:00.324Z,4654.080
2022-08-07T06:18:00.458Z,4884.480
2022-08-07T06:19:00.299Z,4769.280
2022-08-07T06:20:04.416Z,4631.040
2022-08-07T06:22:15.070Z,4930.560
2022-08-07T06:22:15.600Z,4608.000
2022-08-07T06:23:02.271Z,4999.680
2022-08-07T06:24:46.283Z,4953.600
2022-08-07T06:25:01.589Z,14284.800
2022-08-07T06:26:00.408Z,5022.720
2022-08-07T06:27:03.774Z,16865.279
2022-08-07T06:28:01.964Z,4999.680
2022-08-07T06:29:01.406Z,11520.000
2022-08-07T06:30:00.301Z,17418.240
2022-08-07T06:31:00.313Z,17510.400
2022-08-07T06:32:00.398Z,4239.360
2022-08-07T06:33:00.319Z,17141.760
2022-08-07T06:34:00.315Z,17602.561
2022-08-07T06:35:00.319Z,6912.000
2022-08-07T06:36:13.264Z,5552.640
2022-08-07T06:37:00.385Z,4999.680
2022-08-07T06:38:00.392Z,4999.680
2022-08-07T06:40:16.390Z,4423.680
2022-08-07T06:40:17.767Z,5829.120
2022-08-07T06:41:00.382Z,5529.600
2022-08-07T06:42:02.251Z,16957.439
2022-08-07T06:43:00.346Z,16865.279
2022-08-07T06:44:06.547Z,16773.119
2022-08-07T06:45:00.319Z,14376.960
2022-08-07T06:46:00.303Z,5322.240
2022-08-07T06:47:12.039Z,5091.840
2022-08-07T06:48:00.318Z,5045.760
2022-08-07T06:49:00.301Z,4608.000
2022-08-07T06:50:00.483Z,4953.600
2022-08-07T06:51:00.311Z,16404.480
2022-08-07T06:52:07.424Z,5230.080
2022-08-07T06:53:00.304Z,16496.641
2022-08-07T06:55:29.904Z,5253.120
2022-08-07T06:55:31.895Z,5667.840
2022-08-07T06:56:01.947Z,13178.880
2022-08-07T06:57:00.307Z,5460.480
2022-08-07T06:58:00.371Z,5483.520
2022-08-07T06:59:00.315Z,10736.640
2022-08-07T07:00:14.717Z,4677.120
2022-08-07T07:01:00.303Z,10229.760
2022-08-07T07:02:00.643Z,6082.560
2022-08-07T07:03:00.841Z,5552.640
2022-08-07T07:04:16.418Z,4538.880
2022-08-07T07:05:00.300Z,12349.440
2022-08-07T07:06:02.408Z,14469.120
2022-08-07T07:07:01.677Z,4769.280
2022-08-07T07:08:06.877Z,9768.960
2022-08-07T07:09:00.283Z,14561.280
2022-08-07T07:10:00.369Z,15114.240
2022-08-07T07:11:00.923Z,14745.600
2022-08-07T07:12:08.357Z,11335.680
2022-08-07T07:13:00.336Z,11013.120
2022-08-07T07:14:01.405Z,14008.320
2022-08-07T07:15:00.536Z,13363.200
2022-08-07T07:16:00.506Z,14469.120
2022-08-07T07:17:00.648Z,13455.360
2022-08-07T07:18:00.366Z,10045.440
2022-08-07T07:19:00.401Z,13271.040
2022-08-07T07:20:00.312Z,12718.080
2022-08-07T07:21:00.305Z,13547.520
2022-08-07T07:22:04.621Z,13731.840
2022-08-07T07:24:09.587Z,13455.360
2022-08-07T07:24:10.185Z,13363.200
2022-08-07T07:25:13.903Z,10874.880
2022-08-07T07:26:32.564Z,13547.520
2022-08-07T07:27:00.320Z,12902.400
2022-08-07T07:28:02.978Z,12165.120
2022-08-07T07:29:56.364Z,12625.920
2022-08-07T07:30:09.142Z,12072.960
2022-08-07T07:31:00.332Z,10967.040
2022-08-07T07:32:00.388Z,11059.200
2022-08-07T07:33:00.310Z,11658.240
2022-08-07T07:34:00.326Z,10183.680
2022-08-07T07:35:00.473Z,11059.200
2022-08-07T07:36:05.048Z,11197.440
2022-08-07T07:37:14.263Z,10874.880
2022-08-07T07:38:02.744Z,10736.640
2022-08-07T07:39:00.436Z,10598.400
2022-08-07T07:40:00.651Z,10183.680
2022-08-07T07:41:02.362Z,10091.520
2022-08-07T07:42:13.776Z,9630.720
2022-08-07T07:43:11.593Z,9953.280
2022-08-07T07:44:17.609Z,9400.320
2022-08-07T07:45:00.323Z,9400.320
2022-08-07T07:46:40.373Z,8893.440
2022-08-07T07:47:16.054Z,8755.200
2022-08-07T07:48:00.301Z,8663.040
2022-08-07T07:50:29.484Z,5114.880
2022-08-07T07:50:34.145Z,8432.640
2022-08-07T07:51:00.329Z,8064.000
2022-08-07T07:52:00.394Z,8064.000
2022-08-07T07:53:00.816Z,7925.760
2022-08-07T07:54:00.475Z,7234.560
2022-08-07T07:55:00.494Z,7971.840
2022-08-07T07:56:01.048Z,7464.960
2022-08-07T07:57:00.417Z,7695.360
2022-08-07T07:58:00.307Z,7603.200
2022-08-07T07:59:00.382Z,6451.200
2022-08-07T08:00:00.372Z,6865.920
2022-08-07T08:01:00.392Z,6128.640
2022-08-07T08:02:01.736Z,6405.120
2022-08-07T08:03:05.051Z,6451.200
2022-08-07T08:04:10.705Z,6359.040
2022-08-07T08:05:00.282Z,6451.200
2022-08-07T08:06:00.450Z,5829.120
2022-08-07T08:07:00.721Z,6451.200
2022-08-07T08:08:01.222Z,6266.880
2022-08-07T08:09:00.443Z,6497.280
2022-08-07T08:10:05.066Z,6497.280
2022-08-07T08:11:00.380Z,6036.480
2022-08-07T08:12:04.035Z,6036.480
2022-08-07T08:13:00.551Z,5506.560
2022-08-07T08:14:00.307Z,5299.200
2022-08-07T08:15:00.287Z,5368.320
2022-08-07T08:16:00.762Z,4999.680
2022-08-07T08:17:56.285Z,5852.160
2022-08-07T08:18:17.593Z,5713.920
2022-08-07T08:19:09.717Z,6036.480
2022-08-07T08:20:17.975Z,6727.680
2022-08-07T08:21:00.358Z,6220.800
2022-08-07T08:22:03.335Z,7096.320
2022-08-07T08:23:00.350Z,5783.040
2022-08-07T08:24:00.286Z,5944.320
2022-08-07T08:25:18.718Z,5667.840
2022-08-07T08:26:06.445Z,6543.360
2022-08-07T08:27:00.299Z,5736.960
2022-08-07T08:28:03.605Z,5322.240
2022-08-07T08:29:00.305Z,5022.720
2022-08-07T08:30:03.774Z,4700.160
2022-08-07T08:31:00.341Z,4907.520
2022-08-07T08:32:18.049Z,5137.920
2022-08-07T08:33:00.344Z,4469.760
2022-08-07T08:34:00.343Z,5368.320
2022-08-07T08:35:00.375Z,4976.640
2022-08-07T08:36:00.366Z,5760.000
2022-08-07T08:37:00.294Z,5944.320
2022-08-07T08:38:03.180Z,5068.800
2022-08-07T08:39:01.860Z,5137.920
2022-08-07T08:40:00.493Z,5299.200
2022-08-07T08:41:02.885Z,4492.800
2022-08-07T08:42:00.458Z,5944.320
2022-08-07T08:43:00.288Z,4838.400
2022-08-07T08:44:00.355Z,4677.120
2022-08-07T08:45:00.320Z,5829.120
2022-08-07T08:46:00.887Z,4815.360
2022-08-07T08:47:00.424Z,4515.840
2022-08-07T08:48:00.567Z,6266.880
2022-08-07T08:49:00.414Z,5184.000
2022-08-07T08:50:04.628Z,5299.200
2022-08-07T08:51:00.462Z,5898.240
2022-08-07T08:52:13.364Z,6220.800
2022-08-07T08:53:00.720Z,5437.440
2022-08-07T08:54:00.307Z,4700.160
2022-08-07T08:55:01.168Z,5091.840
2022-08-07T08:56:00.434Z,6036.480
2022-08-07T08:57:00.696Z,4423.680
2022-08-07T08:58:00.477Z,4792.320
2022-08-07T08:59:06.327Z,5598.720
2022-08-07T09:00:00.322Z,4884.480
2022-08-07T09:01:00.932Z,4492.800
2022-08-07T09:02:00.497Z,4907.520
2022-08-07T09:03:00.829Z,5091.840
2022-08-07T09:04:00.293Z,5137.920
2022-08-07T09:05:00.291Z,4907.520
2022-08-07T09:06:00.458Z,5322.240
2022-08-07T09:07:00.491Z,5345.280
2022-08-07T09:08:00.311Z,5160.960
2022-08-07T09:09:00.328Z,5184.000
2022-08-07T09:10:02.548Z,5368.320
2022-08-07T09:11:00.447Z,5414.400
2022-08-07T09:12:09.266Z,5736.960
2022-08-07T09:13:00.474Z,5460.480
2022-08-07T09:14:00.321Z,5506.560
2022-08-07T09:15:00.303Z,5368.320
2022-08-07T09:16:23.533Z,5299.200
2022-08-07T09:17:00.362Z,5253.120
2022-08-07T09:18:07.225Z,4538.880
2022-08-07T09:19:00.373Z,5091.840
2022-08-07T09:20:00.387Z,5045.760
2022-08-07T09:21:00.799Z,4907.520
2022-08-07T09:22:22.503Z,4769.280
2022-08-07T09:24:32.197Z,4700.160
2022-08-07T09:24:54.470Z,4515.840
2022-08-07T09:25:07.112Z,4538.880
2022-08-07T09:26:00.528Z,4469.760
2022-08-07T09:27:03.657Z,4423.680
2022-08-07T09:28:01.758Z,4400.640
2022-08-07T09:30:01.487Z,4377.600
2022-08-07T09:30:05.360Z,4331.520
2022-08-07T09:31:00.381Z,4331.520
2022-08-07T09:32:00.303Z,4285.440
2022-08-07T09:33:05.315Z,4262.400
2022-08-07T09:34:00.525Z,4285.440
2022-08-07T09:35:04.785Z,4308.480
2022-08-07T09:36:04.709Z,4308.480
2022-08-07T09:37:00.505Z,4285.440
2022-08-07T09:38:00.526Z,4262.400
2022-08-07T09:39:11.498Z,4262.400
2022-08-07T09:40:00.470Z,4262.400
2022-08-07T09:41:00.523Z,4239.360
2022-08-07T09:42:05.849Z,4239.360
2022-08-07T09:43:00.314Z,4239.360
2022-08-07T09:44:05.680Z,4239.360
2022-08-07T09:47:25.160Z,4262.400
2022-08-07T09:47:49.911Z,4262.400
2022-08-07T09:47:52.328Z,4262.400
2022-08-07T09:48:04.923Z,4262.400
2022-08-07T09:50:01.713Z,4239.360
2022-08-07T09:50:18.467Z,4239.360
2022-08-07T09:51:00.418Z,4262.400
2022-08-07T09:52:15.606Z,4239.360
2022-08-07T09:53:00.827Z,4239.360
2022-08-07T09:54:02.624Z,4239.360
2022-08-07T09:55:00.333Z,4239.360
2022-08-07T09:56:03.631Z,4216.320
2022-08-07T09:57:00.488Z,4216.320
2022-08-07T09:58:00.475Z,4216.320
2022-08-07T09:59:00.433Z,4216.320
2022-08-07T10:00:01.682Z,4262.400
2022-08-07T10:01:00.310Z,4216.320
2022-08-07T10:02:00.289Z,4262.400
2022-08-07T10:03:07.765Z,4285.440
2022-08-07T10:04:05.008Z,4193.280
2022-08-07T10:05:00.686Z,4170.240
2022-08-07T10:06:03.552Z,4170.240
2022-08-07T10:07:00.356Z,4147.200
2022-08-07T10:08:00.910Z,4216.320
2022-08-07T10:09:00.592Z,4170.240
2022-08-07T10:10:03.039Z,4147.200
2022-08-07T10:11:16.802Z,4147.200
2022-08-07T10:12:04.664Z,4124.160
2022-08-07T10:13:00.387Z,4101.120
2022-08-07T10:14:02.202Z,4124.160
2022-08-07T10:15:00.356Z,4101.120
2022-08-07T10:16:00.413Z,4101.120
2022-08-07T10:17:01.026Z,4124.160
2022-08-07T10:18:02.912Z,4101.120
2022-08-07T10:19:00.380Z,4101.120
2022-08-07T10:20:00.533Z,4078.080
2022-08-07T10:21:00.304Z,4078.080
2022-08-07T10:22:15.682Z,4124.160
2022-08-07T10:23:00.454Z,4055.040
2022-08-07T10:24:06.342Z,4032.000
2022-08-07T10:25:00.352Z,4078.080
2022-08-07T10:26:00.534Z,4055.040
2022-08-07T10:27:00.503Z,4055.040
2022-08-07T10:28:00.408Z,4055.040
2022-08-07T10:29:00.759Z,4055.040
2022-08-07T10:30:00.532Z,4032.000
2022-08-07T10:31:00.782Z,4032.000
2022-08-07T10:32:00.309Z,4055.040
2022-08-07T10:33:00.312Z,4055.040
2022-08-07T10:34:05.174Z,4032.000
2022-08-07T10:35:00.663Z,4008.960
2022-08-07T10:36:11.449Z,4008.960
2022-08-07T10:37:03.854Z,3985.920
2022-08-07T10:38:21.332Z,3985.920
2022-08-07T10:39:00.446Z,3939.840
2022-08-07T10:40:05.636Z,3962.880
2022-08-07T10:41:00.663Z,3962.880
2022-08-07T10:42:09.249Z,3985.920
2022-08-07T10:43:00.570Z,3962.880
2022-08-07T10:44:07.245Z,3939.840
2022-08-07T10:45:00.341Z,3962.880
2022-08-07T10:46:00.399Z,3962.880
2022-08-07T10:47:00.396Z,3962.880
2022-08-07T10:48:03.551Z,3962.880
2022-08-07T10:49:00.326Z,3962.880
2022-08-07T10:50:00.327Z,3962.880
2022-08-07T10:51:00.329Z,3939.840
2022-08-07T10:52:13.459Z,3962.880
2022-08-07T10:53:05.147Z,3985.920
2022-08-07T10:54:00.441Z,3939.840
2022-08-07T10:55:07.840Z,3939.840
2022-08-07T10:56:02.253Z,3939.840
2022-08-07T10:57:00.314Z,3916.800
2022-08-07T10:58:00.413Z,3962.880
2022-08-07T10:59:00.342Z,3916.800
2022-08-07T11:00:00.362Z,3939.840
2022-08-07T11:01:00.763Z,3893.760
2022-08-07T11:02:04.870Z,3847.680
2022-08-07T11:03:00.395Z,3916.800
2022-08-07T11:04:23.115Z,3847.680
2022-08-07T11:05:02.400Z,3801.600
2022-08-07T11:06:00.460Z,3824.640
2022-08-07T11:07:00.283Z,3870.720
2022-08-07T11:08:02.789Z,3893.760
2022-08-07T11:09:00.315Z,3916.800
2022-08-07T11:10:08.996Z,3893.760
2022-08-07T11:11:00.335Z,3893.760
2022-08-07T11:12:00.389Z,3916.800
2022-08-07T11:13:01.594Z,3916.800
2022-08-07T11:14:59.677Z,3939.840
2022-08-07T11:15:01.038Z,3916.800
2022-08-07T11:16:00.374Z,4008.960
2022-08-07T11:17:02.068Z,3985.920
2022-08-07T11:18:03.663Z,4032.000
2022-08-07T11:19:00.317Z,4008.960
2022-08-07T11:20:03.185Z,3870.720
2022-08-07T11:21:00.315Z,2868.480
2022-08-07T11:22:00.327Z,2972.160
2022-08-07T11:23:01.391Z,2730.240
2022-08-07T11:24:00.423Z,3778.560
2022-08-07T11:25:00.404Z,3801.600
2022-08-07T11:26:06.413Z,3847.680
2022-08-07T11:27:01.251Z,4147.200
2022-08-07T11:28:03.048Z,4124.160
2022-08-07T11:29:00.321Z,4147.200
2022-08-07T11:30:18.635Z,3870.720
2022-08-07T11:31:00.398Z,4101.120
2022-08-07T11:32:00.278Z,4078.080
2022-08-07T11:33:00.294Z,4101.120
2022-08-07T11:34:00.766Z,4032.000
2022-08-07T11:35:00.313Z,3985.920
2022-08-07T11:36:01.450Z,4008.960
2022-08-07T11:37:00.635Z,3548.160
2022-08-07T11:38:12.781Z,4078.080
2022-08-07T11:39:00.361Z,4078.080
2022-08-07T11:40:02.058Z,4055.040
2022-08-07T11:41:00.302Z,4078.080
2022-08-07T11:42:02.914Z,2350.080
2022-08-07T11:43:00.315Z,3640.320
2022-08-07T11:44:11.875Z,3133.440
2022-08-07T11:45:00.293Z,3571.200
2022-08-07T11:46:00.390Z,2511.360
2022-08-07T11:47:00.369Z,2453.760
2022-08-07T11:48:02.589Z,2442.240
2022-08-07T11:49:50.244Z,2373.120
2022-08-07T11:50:31.653Z,2384.640
2022-08-07T11:51:00.282Z,2661.120
2022-08-07T11:52:00.389Z,3525.120
2022-08-07T11:53:00.366Z,3502.080
2022-08-07T11:54:01.999Z,2638.080